sensor_id;sensor_type;location;lat;lon;timestamp;P1;durP1;ratioP1;P2;durP2;ratioP2
22248;SDS011;67538;52.180;5.646;2023-02-20T00:00:58;20.67;;;11.02;;
22248;SDS011;67538;52.180;5.646;2023-02-20T00:03:25;16.35;;;11.32;;
22248;SDS011;67538;52.180;5.646;2023-02-20T00:05:52;16.67;;;10.95;;
22248;SDS011;67538;52.180;5.646;2023-02-20T00:08:19;19.38;;;11.55;;
22248;SDS011;67538;52.180;5.646;2023-02-20T00:10:47;19.87;;;11.50;;
22248;SDS011;67538;52.180;5.646;2023-02-20T00:13:14;21.08;;;12.00;;
22248;SDS011;67538;52.180;5.646;2023-02-20T00:15:43;21.42;;;12.25;;
22248;SDS011;67538;52.180;5.646;2023-02-20T00:18:10;20.92;;;11.73;;
22248;SDS011;67538;52.180;5.646;2023-02-20T00:20:37;21.55;;;12.13;;
22248;SDS011;67538;52.180;5.646;2023-02-20T00:23:04;19.30;;;12.10;;
22248;SDS011;67538;52.180;5.646;2023-02-20T00:25:31;20.80;;;12.40;;
22248;SDS011;67538;52.180;5.646;2023-02-20T00:27:58;21.42;;;13.25;;
22248;SDS011;67538;52.180;5.646;2023-02-20T00:30:25;23.63;;;13.40;;
22248;SDS011;67538;52.180;5.646;2023-02-20T00:32:54;24.40;;;13.63;;
22248;SDS011;67538;52.180;5.646;2023-02-20T00:35:23;24.38;;;13.40;;
22248;SDS011;67538;52.180;5.646;2023-02-20T00:37:51;22.10;;;13.15;;
22248;SDS011;67538;52.180;5.646;2023-02-20T00:40:19;23.65;;;13.90;;
22248;SDS011;67538;52.180;5.646;2023-02-20T00:42:47;23.73;;;14.32;;
22248;SDS011;67538;52.180;5.646;2023-02-20T00:45:15;21.10;;;13.85;;
22248;SDS011;67538;52.180;5.646;2023-02-20T00:47:42;23.40;;;14.63;;
22248;SDS011;67538;52.180;5.646;2023-02-20T00:50:12;23.37;;;14.77;;
22248;SDS011;67538;52.180;5.646;2023-02-20T00:52:40;23.08;;;14.40;;
22248;SDS011;67538;52.180;5.646;2023-02-20T00:55:07;25.33;;;15.45;;
22248;SDS011;67538;52.180;5.646;2023-02-20T00:57:35;25.13;;;15.60;;
22248;SDS011;67538;52.180;5.646;2023-02-20T01:00:03;24.87;;;15.83;;
22248;SDS011;67538;52.180;5.646;2023-02-20T01:02:31;25.83;;;15.73;;
22248;SDS011;67538;52.180;5.646;2023-02-20T01:04:58;24.65;;;15.57;;
22248;SDS011;67538;52.180;5.646;2023-02-20T01:07:26;26.42;;;16.58;;
22248;SDS011;67538;52.180;5.646;2023-02-20T01:09:53;26.38;;;16.00;;
22248;SDS011;67538;52.180;5.646;2023-02-20T01:12:20;27.25;;;15.85;;
22248;SDS011;67538;52.180;5.646;2023-02-20T01:14:47;25.70;;;16.38;;
22248;SDS011;67538;52.180;5.646;2023-02-20T01:17:14;25.03;;;16.80;;
22248;SDS011;67538;52.180;5.646;2023-02-20T01:19:42;26.35;;;17.33;;
22248;SDS011;67538;52.180;5.646;2023-02-20T01:22:09;27.55;;;17.63;;
22248;SDS011;67538;52.180;5.646;2023-02-20T01:24:38;26.10;;;16.75;;
22248;SDS011;67538;52.180;5.646;2023-02-20T01:27:06;26.08;;;16.95;;
22248;SDS011;67538;52.180;5.646;2023-02-20T01:29:34;29.17;;;17.73;;
22248;SDS011;67538;52.180;5.646;2023-02-20T01:32:01;28.75;;;17.02;;
22248;SDS011;67538;52.180;5.646;2023-02-20T01:34:28;27.93;;;16.77;;
22248;SDS011;67538;52.180;5.646;2023-02-20T01:36:55;32.38;;;18.08;;
22248;SDS011;67538;52.180;5.646;2023-02-20T01:39:23;29.48;;;17.40;;
22248;SDS011;67538;52.180;5.646;2023-02-20T01:41:53;31.08;;;18.25;;
22248;SDS011;67538;52.180;5.646;2023-02-20T01:44:24;28.30;;;18.60;;
22248;SDS011;67538;52.180;5.646;2023-02-20T01:46:52;30.67;;;18.25;;
22248;SDS011;67538;52.180;5.646;2023-02-20T01:49:31;32.92;;;18.65;;
22248;SDS011;67538;52.180;5.646;2023-02-20T01:52:02;29.42;;;17.05;;
22248;SDS011;67538;52.180;5.646;2023-02-20T01:54:33;30.85;;;17.48;;
22248;SDS011;67538;52.180;5.646;2023-02-20T01:57:03;28.40;;;17.88;;
22248;SDS011;67538;52.180;5.646;2023-02-20T01:59:33;31.65;;;17.98;;
22248;SDS011;67538;52.180;5.646;2023-02-20T02:02:03;29.45;;;17.75;;
22248;SDS011;67538;52.180;5.646;2023-02-20T02:04:32;31.30;;;18.48;;
22248;SDS011;67538;52.180;5.646;2023-02-20T02:07:01;34.67;;;18.63;;
22248;SDS011;67538;52.180;5.646;2023-02-20T02:09:32;28.42;;;17.92;;
22248;SDS011;67538;52.180;5.646;2023-02-20T02:12:06;33.53;;;18.13;;
22248;SDS011;67538;52.180;5.646;2023-02-20T02:14:33;31.60;;;18.23;;
22248;SDS011;67538;52.180;5.646;2023-02-20T02:23:03;27.83;;;18.15;;
22248;SDS011;67538;52.180;5.646;2023-02-20T02:25:54;37.33;;;19.90;;
22248;SDS011;67538;52.180;5.646;2023-02-20T02:31:41;36.40;;;20.53;;
22248;SDS011;67538;52.180;5.646;2023-02-20T02:34:37;43.15;;;22.67;;
22248;SDS011;67538;52.180;5.646;2023-02-20T02:37:39;41.95;;;23.48;;
22248;SDS011;67538;52.180;5.646;2023-02-20T02:40:15;43.72;;;24.38;;
22248;SDS011;67538;52.180;5.646;2023-02-20T02:42:50;47.08;;;25.85;;
22248;SDS011;67538;52.180;5.646;2023-02-20T02:45:25;50.90;;;26.67;;
22248;SDS011;67538;52.180;5.646;2023-02-20T02:47:58;52.13;;;28.63;;
22248;SDS011;67538;52.180;5.646;2023-02-20T02:50:32;49.15;;;28.20;;
22248;SDS011;67538;52.180;5.646;2023-02-20T02:53:04;53.13;;;29.35;;
22248;SDS011;67538;52.180;5.646;2023-02-20T02:55:34;57.17;;;29.40;;
22248;SDS011;67538;52.180;5.646;2023-02-20T02:58:01;54.77;;;30.27;;
22248;SDS011;67538;52.180;5.646;2023-02-20T03:00:30;54.95;;;30.63;;
22248;SDS011;67538;52.180;5.646;2023-02-20T03:03:05;52.60;;;30.67;;
22248;SDS011;67538;52.180;5.646;2023-02-20T03:05:37;57.15;;;31.20;;
22248;SDS011;67538;52.180;5.646;2023-02-20T03:08:13;62.15;;;31.65;;
22248;SDS011;67538;52.180;5.646;2023-02-20T03:10:56;58.90;;;32.37;;
22248;SDS011;67538;52.180;5.646;2023-02-20T03:13:27;61.72;;;32.60;;
22248;SDS011;67538;52.180;5.646;2023-02-20T03:16:15;59.47;;;33.83;;
22248;SDS011;67538;52.180;5.646;2023-02-20T03:18:46;64.65;;;34.58;;
22248;SDS011;67538;52.180;5.646;2023-02-20T03:21:16;61.75;;;33.40;;
22248;SDS011;67538;52.180;5.646;2023-02-20T03:23:48;65.90;;;34.45;;
22248;SDS011;67538;52.180;5.646;2023-02-20T03:26:19;65.78;;;35.58;;
22248;SDS011;67538;52.180;5.646;2023-02-20T03:28:50;61.80;;;34.03;;
22248;SDS011;67538;52.180;5.646;2023-02-20T03:31:23;64.75;;;36.20;;
22248;SDS011;67538;52.180;5.646;2023-02-20T03:33:55;60.57;;;35.43;;
22248;SDS011;67538;52.180;5.646;2023-02-20T03:36:44;63.40;;;35.50;;
22248;SDS011;67538;52.180;5.646;2023-02-20T03:39:35;69.03;;;35.97;;
22248;SDS011;67538;52.180;5.646;2023-02-20T03:42:22;65.28;;;36.38;;
22248;SDS011;67538;52.180;5.646;2023-02-20T03:45:07;66.75;;;36.47;;
22248;SDS011;67538;52.180;5.646;2023-02-20T03:47:38;63.13;;;35.57;;
22248;SDS011;67538;52.180;5.646;2023-02-20T03:50:09;63.65;;;35.20;;
22248;SDS011;67538;52.180;5.646;2023-02-20T03:52:38;67.65;;;36.60;;
22248;SDS011;67538;52.180;5.646;2023-02-20T03:55:07;63.97;;;36.80;;
22248;SDS011;67538;52.180;5.646;2023-02-20T03:57:35;67.77;;;36.33;;
22248;SDS011;67538;52.180;5.646;2023-02-20T04:00:07;66.45;;;35.38;;
22248;SDS011;67538;52.180;5.646;2023-02-20T04:02:40;65.45;;;35.78;;
22248;SDS011;67538;52.180;5.646;2023-02-20T04:05:10;67.88;;;35.35;;
22248;SDS011;67538;52.180;5.646;2023-02-20T04:07:42;69.43;;;35.90;;
22248;SDS011;67538;52.180;5.646;2023-02-20T04:10:17;66.20;;;34.45;;
22248;SDS011;67538;52.180;5.646;2023-02-20T04:12:49;68.30;;;35.05;;
22248;SDS011;67538;52.180;5.646;2023-02-20T04:15:17;67.55;;;34.15;;
22248;SDS011;67538;52.180;5.646;2023-02-20T04:17:47;66.95;;;34.53;;
22248;SDS011;67538;52.180;5.646;2023-02-20T04:20:16;63.97;;;34.13;;
22248;SDS011;67538;52.180;5.646;2023-02-20T04:22:44;67.65;;;33.80;;
22248;SDS011;67538;52.180;5.646;2023-02-20T04:25:17;70.20;;;35.03;;
22248;SDS011;67538;52.180;5.646;2023-02-20T04:27:50;67.03;;;35.27;;
22248;SDS011;67538;52.180;5.646;2023-02-20T04:30:18;69.30;;;35.63;;
22248;SDS011;67538;52.180;5.646;2023-02-20T04:32:45;68.85;;;34.83;;
22248;SDS011;67538;52.180;5.646;2023-02-20T04:35:14;69.45;;;35.15;;
22248;SDS011;67538;52.180;5.646;2023-02-20T04:37:43;65.20;;;35.47;;
22248;SDS011;67538;52.180;5.646;2023-02-20T04:40:10;67.40;;;35.80;;
22248;SDS011;67538;52.180;5.646;2023-02-20T04:42:39;64.38;;;35.03;;
22248;SDS011;67538;52.180;5.646;2023-02-20T04:45:06;71.17;;;35.97;;
22248;SDS011;67538;52.180;5.646;2023-02-20T04:47:33;66.10;;;35.58;;
22248;SDS011;67538;52.180;5.646;2023-02-20T04:50:01;66.82;;;37.03;;
22248;SDS011;67538;52.180;5.646;2023-02-20T04:52:28;71.05;;;36.70;;
22248;SDS011;67538;52.180;5.646;2023-02-20T04:54:55;69.25;;;36.80;;
22248;SDS011;67538;52.180;5.646;2023-02-20T04:57:22;69.45;;;37.03;;
22248;SDS011;67538;52.180;5.646;2023-02-20T04:59:51;74.53;;;37.50;;
22248;SDS011;67538;52.180;5.646;2023-02-20T05:02:18;68.40;;;37.23;;
22248;SDS011;67538;52.180;5.646;2023-02-20T05:04:45;74.75;;;38.90;;
22248;SDS011;67538;52.180;5.646;2023-02-20T05:07:12;73.07;;;39.05;;
22248;SDS011;67538;52.180;5.646;2023-02-20T05:09:41;72.75;;;39.58;;
22248;SDS011;67538;52.180;5.646;2023-02-20T05:12:09;70.43;;;37.65;;
22248;SDS011;67538;52.180;5.646;2023-02-20T05:14:36;74.60;;;39.10;;
22248;SDS011;67538;52.180;5.646;2023-02-20T05:17:04;83.35;;;39.50;;
22248;SDS011;67538;52.180;5.646;2023-02-20T05:19:31;74.43;;;38.75;;
22248;SDS011;67538;52.180;5.646;2023-02-20T05:21:58;73.70;;;37.70;;
22248;SDS011;67538;52.180;5.646;2023-02-20T05:24:43;68.20;;;37.67;;
22248;SDS011;67538;52.180;5.646;2023-02-20T05:27:10;74.32;;;37.53;;
22248;SDS011;67538;52.180;5.646;2023-02-20T05:29:42;69.80;;;36.63;;
22248;SDS011;67538;52.180;5.646;2023-02-20T05:32:12;67.35;;;37.00;;
22248;SDS011;67538;52.180;5.646;2023-02-20T05:34:39;73.88;;;36.38;;
22248;SDS011;67538;52.180;5.646;2023-02-20T05:37:06;66.13;;;36.13;;
22248;SDS011;67538;52.180;5.646;2023-02-20T05:39:33;69.38;;;34.20;;
22248;SDS011;67538;52.180;5.646;2023-02-20T05:42:00;68.90;;;34.85;;
22248;SDS011;67538;52.180;5.646;2023-02-20T05:44:27;68.35;;;34.70;;
22248;SDS011;67538;52.180;5.646;2023-02-20T05:46:54;59.63;;;32.97;;
22248;SDS011;67538;52.180;5.646;2023-02-20T05:49:23;60.67;;;33.22;;
22248;SDS011;67538;52.180;5.646;2023-02-20T05:51:50;61.03;;;32.83;;
22248;SDS011;67538;52.180;5.646;2023-02-20T05:54:17;61.60;;;32.25;;
22248;SDS011;67538;52.180;5.646;2023-02-20T05:56:45;58.87;;;31.67;;
22248;SDS011;67538;52.180;5.646;2023-02-20T05:59:13;60.78;;;32.42;;
22248;SDS011;67538;52.180;5.646;2023-02-20T06:01:43;57.35;;;31.08;;
22248;SDS011;67538;52.180;5.646;2023-02-20T06:04:10;57.17;;;30.75;;
22248;SDS011;67538;52.180;5.646;2023-02-20T06:06:39;64.45;;;30.20;;
22248;SDS011;67538;52.180;5.646;2023-02-20T06:09:07;56.28;;;29.52;;
22248;SDS011;67538;52.180;5.646;2023-02-20T06:11:36;57.47;;;30.70;;
22248;SDS011;67538;52.180;5.646;2023-02-20T06:14:03;56.38;;;29.10;;
22248;SDS011;67538;52.180;5.646;2023-02-20T06:16:31;54.70;;;29.25;;
22248;SDS011;67538;52.180;5.646;2023-02-20T06:18:59;49.85;;;28.10;;
22248;SDS011;67538;52.180;5.646;2023-02-20T06:21:26;53.78;;;28.15;;
22248;SDS011;67538;52.180;5.646;2023-02-20T06:23:56;48.80;;;27.05;;
22248;SDS011;67538;52.180;5.646;2023-02-20T06:26:23;57.20;;;26.75;;
22248;SDS011;67538;52.180;5.646;2023-02-20T06:28:50;52.38;;;26.80;;
22248;SDS011;67538;52.180;5.646;2023-02-20T06:31:21;48.43;;;25.00;;
22248;SDS011;67538;52.180;5.646;2023-02-20T06:33:49;42.55;;;23.98;;
22248;SDS011;67538;52.180;5.646;2023-02-20T06:36:17;45.63;;;24.38;;
22248;SDS011;67538;52.180;5.646;2023-02-20T06:38:46;54.13;;;24.35;;
22248;SDS011;67538;52.180;5.646;2023-02-20T06:41:14;51.95;;;24.10;;
22248;SDS011;67538;52.180;5.646;2023-02-20T06:43:41;44.25;;;23.98;;
22248;SDS011;67538;52.180;5.646;2023-02-20T06:46:08;46.58;;;23.30;;
22248;SDS011;67538;52.180;5.646;2023-02-20T06:48:42;41.55;;;22.65;;
22248;SDS011;67538;52.180;5.646;2023-02-20T06:51:09;40.53;;;21.88;;
22248;SDS011;67538;52.180;5.646;2023-02-20T06:53:36;44.95;;;22.77;;
22248;SDS011;67538;52.180;5.646;2023-02-20T06:56:07;44.20;;;22.25;;
22248;SDS011;67538;52.180;5.646;2023-02-20T06:58:36;46.10;;;21.83;;
22248;SDS011;67538;52.180;5.646;2023-02-20T07:01:03;38.80;;;22.20;;
22248;SDS011;67538;52.180;5.646;2023-02-20T07:03:30;45.13;;;21.95;;
22248;SDS011;67538;52.180;5.646;2023-02-20T07:05:57;46.40;;;21.98;;
22248;SDS011;67538;52.180;5.646;2023-02-20T07:08:24;43.83;;;22.40;;
22248;SDS011;67538;52.180;5.646;2023-02-20T07:10:51;45.15;;;21.55;;
22248;SDS011;67538;52.180;5.646;2023-02-20T07:13:19;48.22;;;21.70;;
22248;SDS011;67538;52.180;5.646;2023-02-20T07:15:48;45.08;;;21.05;;
22248;SDS011;67538;52.180;5.646;2023-02-20T07:18:15;41.53;;;20.02;;
22248;SDS011;67538;52.180;5.646;2023-02-20T07:20:42;44.90;;;20.75;;
22248;SDS011;67538;52.180;5.646;2023-02-20T07:23:10;46.45;;;20.17;;
22248;SDS011;67538;52.180;5.646;2023-02-20T07:25:37;46.72;;;20.60;;
22248;SDS011;67538;52.180;5.646;2023-02-20T07:28:06;41.08;;;19.75;;
22248;SDS011;67538;52.180;5.646;2023-02-20T07:30:33;42.40;;;19.67;;
22248;SDS011;67538;52.180;5.646;2023-02-20T07:33:01;43.88;;;19.52;;
22248;SDS011;67538;52.180;5.646;2023-02-20T07:35:28;45.30;;;19.38;;
22248;SDS011;67538;52.180;5.646;2023-02-20T07:37:55;41.95;;;18.60;;
22248;SDS011;67538;52.180;5.646;2023-02-20T07:40:22;45.25;;;18.38;;
22248;SDS011;67538;52.180;5.646;2023-02-20T07:42:49;46.83;;;18.50;;
22248;SDS011;67538;52.180;5.646;2023-02-20T07:45:16;38.83;;;17.40;;
22248;SDS011;67538;52.180;5.646;2023-02-20T07:47:43;43.40;;;17.80;;
22248;SDS011;67538;52.180;5.646;2023-02-20T07:50:12;40.45;;;17.42;;
22248;SDS011;67538;52.180;5.646;2023-02-20T07:52:39;40.07;;;18.13;;
22248;SDS011;67538;52.180;5.646;2023-02-20T07:55:07;46.22;;;18.85;;
22248;SDS011;67538;52.180;5.646;2023-02-20T07:57:34;41.03;;;17.67;;
22248;SDS011;67538;52.180;5.646;2023-02-20T08:00:03;40.80;;;17.90;;
22248;SDS011;67538;52.180;5.646;2023-02-20T08:02:31;41.60;;;17.98;;
22248;SDS011;67538;52.180;5.646;2023-02-20T08:04:58;42.45;;;17.92;;
22248;SDS011;67538;52.180;5.646;2023-02-20T08:07:27;41.63;;;17.97;;
22248;SDS011;67538;52.180;5.646;2023-02-20T08:09:54;43.42;;;17.90;;
22248;SDS011;67538;52.180;5.646;2023-02-20T08:12:21;44.10;;;18.35;;
22248;SDS011;67538;52.180;5.646;2023-02-20T08:14:48;47.23;;;18.73;;
22248;SDS011;67538;52.180;5.646;2023-02-20T08:17:16;43.40;;;17.67;;
22248;SDS011;67538;52.180;5.646;2023-02-20T08:19:44;45.15;;;17.83;;
22248;SDS011;67538;52.180;5.646;2023-02-20T08:22:11;37.95;;;16.98;;
22248;SDS011;67538;52.180;5.646;2023-02-20T08:24:39;44.25;;;17.88;;
22248;SDS011;67538;52.180;5.646;2023-02-20T08:27:06;39.28;;;17.67;;
22248;SDS011;67538;52.180;5.646;2023-02-20T08:29:33;38.13;;;17.70;;
22248;SDS011;67538;52.180;5.646;2023-02-20T08:32:01;39.45;;;17.45;;
22248;SDS011;67538;52.180;5.646;2023-02-20T08:34:28;40.63;;;16.83;;
22248;SDS011;67538;52.180;5.646;2023-02-20T08:36:55;36.15;;;16.25;;
22248;SDS011;67538;52.180;5.646;2023-02-20T08:39:22;38.67;;;17.42;;
22248;SDS011;67538;52.180;5.646;2023-02-20T08:41:52;39.15;;;17.13;;
22248;SDS011;67538;52.180;5.646;2023-02-20T08:44:19;35.43;;;16.90;;
22248;SDS011;67538;52.180;5.646;2023-02-20T08:46:46;45.35;;;17.48;;
22248;SDS011;67538;52.180;5.646;2023-02-20T08:49:14;39.95;;;17.60;;
22248;SDS011;67538;52.180;5.646;2023-02-20T08:51:43;40.17;;;17.73;;
22248;SDS011;67538;52.180;5.646;2023-02-20T08:54:10;41.03;;;17.33;;
22248;SDS011;67538;52.180;5.646;2023-02-20T08:56:38;36.55;;;17.27;;
22248;SDS011;67538;52.180;5.646;2023-02-20T08:59:07;37.70;;;18.05;;
22248;SDS011;67538;52.180;5.646;2023-02-20T09:01:34;40.45;;;17.30;;
22248;SDS011;67538;52.180;5.646;2023-02-20T09:04:01;36.25;;;17.25;;
22248;SDS011;67538;52.180;5.646;2023-02-20T09:06:28;38.27;;;17.70;;
22248;SDS011;67538;52.180;5.646;2023-02-20T09:08:55;36.83;;;17.88;;
22248;SDS011;67538;52.180;5.646;2023-02-20T09:11:22;39.25;;;18.30;;
22248;SDS011;67538;52.180;5.646;2023-02-20T09:13:50;38.00;;;18.13;;
22248;SDS011;67538;52.180;5.646;2023-02-20T09:16:19;36.78;;;17.27;;
22248;SDS011;67538;52.180;5.646;2023-02-20T09:18:50;35.03;;;18.37;;
22248;SDS011;67538;52.180;5.646;2023-02-20T09:21:19;41.90;;;18.58;;
22248;SDS011;67538;52.180;5.646;2023-02-20T09:23:46;41.78;;;19.05;;
22248;SDS011;67538;52.180;5.646;2023-02-20T09:26:14;38.13;;;19.58;;
22248;SDS011;67538;52.180;5.646;2023-02-20T09:28:41;39.90;;;18.80;;
22248;SDS011;67538;52.180;5.646;2023-02-20T09:31:08;43.13;;;18.77;;
22248;SDS011;67538;52.180;5.646;2023-02-20T09:33:36;36.72;;;19.45;;
22248;SDS011;67538;52.180;5.646;2023-02-20T09:36:04;40.40;;;18.90;;
22248;SDS011;67538;52.180;5.646;2023-02-20T09:38:31;41.15;;;19.23;;
22248;SDS011;67538;52.180;5.646;2023-02-20T09:40:58;39.90;;;19.73;;
22248;SDS011;67538;52.180;5.646;2023-02-20T09:43:32;35.33;;;19.27;;
22248;SDS011;67538;52.180;5.646;2023-02-20T09:46:08;40.97;;;19.93;;
22248;SDS011;67538;52.180;5.646;2023-02-20T09:48:44;38.30;;;19.08;;
22248;SDS011;67538;52.180;5.646;2023-02-20T09:51:26;42.33;;;20.00;;
22248;SDS011;67538;52.180;5.646;2023-02-20T09:53:56;40.20;;;19.55;;
22248;SDS011;67538;52.180;5.646;2023-02-20T09:56:30;40.00;;;19.42;;
22248;SDS011;67538;52.180;5.646;2023-02-20T09:59:01;37.03;;;19.50;;
22248;SDS011;67538;52.180;5.646;2023-02-20T10:01:32;40.45;;;20.77;;
22248;SDS011;67538;52.180;5.646;2023-02-20T10:04:03;43.65;;;21.45;;
22248;SDS011;67538;52.180;5.646;2023-02-20T10:06:33;43.33;;;20.52;;
22248;SDS011;67538;52.180;5.646;2023-02-20T10:09:01;38.33;;;21.27;;
22248;SDS011;67538;52.180;5.646;2023-02-20T10:11:33;37.95;;;20.48;;
22248;SDS011;67538;52.180;5.646;2023-02-20T10:14:21;40.25;;;21.60;;
22248;SDS011;67538;52.180;5.646;2023-02-20T10:17:19;46.33;;;23.08;;
22248;SDS011;67538;52.180;5.646;2023-02-20T10:19:58;39.47;;;20.25;;
22248;SDS011;67538;52.180;5.646;2023-02-20T10:22:29;35.57;;;19.83;;
22248;SDS011;67538;52.180;5.646;2023-02-20T10:27:51;36.90;;;19.38;;
22248;SDS011;67538;52.180;5.646;2023-02-20T10:30:22;38.20;;;19.48;;
22248;SDS011;67538;52.180;5.646;2023-02-20T10:32:52;36.53;;;18.65;;
22248;SDS011;67538;52.180;5.646;2023-02-20T10:35:25;37.70;;;19.10;;
22248;SDS011;67538;52.180;5.646;2023-02-20T10:38:01;33.13;;;18.70;;
22248;SDS011;67538;52.180;5.646;2023-02-20T10:40:32;40.15;;;18.67;;
22248;SDS011;67538;52.180;5.646;2023-02-20T10:43:03;36.00;;;18.20;;
22248;SDS011;67538;52.180;5.646;2023-02-20T10:45:38;30.87;;;17.60;;
22248;SDS011;67538;52.180;5.646;2023-02-20T10:48:12;32.65;;;17.50;;
22248;SDS011;67538;52.180;5.646;2023-02-20T10:50:42;30.65;;;17.48;;
22248;SDS011;67538;52.180;5.646;2023-02-20T10:53:18;33.50;;;17.33;;
22248;SDS011;67538;52.180;5.646;2023-02-20T10:55:53;35.00;;;16.83;;
22248;SDS011;67538;52.180;5.646;2023-02-20T10:58:27;31.98;;;15.85;;
22248;SDS011;67538;52.180;5.646;2023-02-20T11:00:59;34.70;;;16.00;;
22248;SDS011;67538;52.180;5.646;2023-02-20T11:03:31;29.73;;;15.07;;
22248;SDS011;67538;52.180;5.646;2023-02-20T11:06:05;28.40;;;14.23;;
22248;SDS011;67538;52.180;5.646;2023-02-20T11:08:34;31.08;;;14.00;;
22248;SDS011;67538;52.180;5.646;2023-02-20T11:11:05;33.70;;;14.48;;
22248;SDS011;67538;52.180;5.646;2023-02-20T11:13:49;31.10;;;14.93;;
22248;SDS011;67538;52.180;5.646;2023-02-20T11:16:20;30.92;;;15.27;;
22248;SDS011;67538;52.180;5.646;2023-02-20T11:18:52;27.88;;;15.95;;
22248;SDS011;67538;52.180;5.646;2023-02-20T11:21:39;33.92;;;16.90;;
22248;SDS011;67538;52.180;5.646;2023-02-20T11:24:24;25.65;;;16.50;;
22248;SDS011;67538;52.180;5.646;2023-02-20T11:27:04;32.10;;;18.27;;
22248;SDS011;67538;52.180;5.646;2023-02-20T11:29:36;31.13;;;18.27;;
22248;SDS011;67538;52.180;5.646;2023-02-20T11:44:09;35.58;;;22.30;;
22248;SDS011;67538;52.180;5.646;2023-02-20T11:46:45;34.95;;;22.60;;
22248;SDS011;67538;52.180;5.646;2023-02-20T11:49:22;38.42;;;22.90;;
22248;SDS011;67538;52.180;5.646;2023-02-20T11:51:51;33.00;;;24.00;;
22248;SDS011;67538;52.180;5.646;2023-02-20T11:54:32;40.25;;;23.45;;
22248;SDS011;67538;52.180;5.646;2023-02-20T11:57:00;37.80;;;24.42;;
22248;SDS011;67538;52.180;5.646;2023-02-20T11:59:34;34.30;;;23.58;;
22248;SDS011;67538;52.180;5.646;2023-02-20T12:02:16;34.88;;;24.17;;
22248;SDS011;67538;52.180;5.646;2023-02-20T12:05:04;36.58;;;23.17;;
22248;SDS011;67538;52.180;5.646;2023-02-20T12:07:35;35.08;;;23.30;;
22248;SDS011;67538;52.180;5.646;2023-02-20T12:10:09;35.07;;;24.23;;
22248;SDS011;67538;52.180;5.646;2023-02-20T12:12:47;36.25;;;24.27;;
22248;SDS011;67538;52.180;5.646;2023-02-20T12:15:16;35.08;;;24.85;;
22248;SDS011;67538;52.180;5.646;2023-02-20T12:17:50;38.88;;;25.23;;
22248;SDS011;67538;52.180;5.646;2023-02-20T12:20:31;36.95;;;25.60;;
22248;SDS011;67538;52.180;5.646;2023-02-20T12:23:01;40.85;;;25.63;;
22248;SDS011;67538;52.180;5.646;2023-02-20T12:25:42;37.22;;;26.17;;
22248;SDS011;67538;52.180;5.646;2023-02-20T12:28:22;42.80;;;27.60;;
22248;SDS011;67538;52.180;5.646;2023-02-20T12:31:01;39.20;;;27.60;;
22248;SDS011;67538;52.180;5.646;2023-02-20T12:33:43;43.57;;;29.10;;
22248;SDS011;67538;52.180;5.646;2023-02-20T12:36:22;40.75;;;28.15;;
22248;SDS011;67538;52.180;5.646;2023-02-20T12:38:56;40.30;;;28.63;;
22248;SDS011;67538;52.180;5.646;2023-02-20T12:41:30;36.65;;;28.23;;
22248;SDS011;67538;52.180;5.646;2023-02-20T12:47:02;39.13;;;29.20;;
22248;SDS011;67538;52.180;5.646;2023-02-20T12:49:45;39.78;;;29.30;;
22248;SDS011;67538;52.180;5.646;2023-02-20T12:52:29;41.88;;;29.95;;
22248;SDS011;67538;52.180;5.646;2023-02-20T12:55:08;39.67;;;30.05;;
22248;SDS011;67538;52.180;5.646;2023-02-20T12:57:49;43.97;;;30.90;;
22248;SDS011;67538;52.180;5.646;2023-02-20T13:00:28;45.10;;;31.95;;
22248;SDS011;67538;52.180;5.646;2023-02-20T13:02:59;41.17;;;31.33;;
22248;SDS011;67538;52.180;5.646;2023-02-20T13:05:33;43.22;;;30.05;;
22248;SDS011;67538;52.180;5.646;2023-02-20T13:08:06;41.50;;;29.45;;
22248;SDS011;67538;52.180;5.646;2023-02-20T13:10:41;40.13;;;28.27;;
22248;SDS011;67538;52.180;5.646;2023-02-20T13:13:16;38.85;;;27.92;;
22248;SDS011;67538;52.180;5.646;2023-02-20T13:15:46;38.37;;;27.47;;
22248;SDS011;67538;52.180;5.646;2023-02-20T13:18:22;40.53;;;27.80;;
22248;SDS011;67538;52.180;5.646;2023-02-20T13:20:57;37.05;;;26.88;;
22248;SDS011;67538;52.180;5.646;2023-02-20T13:23:30;38.03;;;25.30;;
22248;SDS011;67538;52.180;5.646;2023-02-20T13:25:59;34.80;;;24.80;;
22248;SDS011;67538;52.180;5.646;2023-02-20T13:28:35;39.42;;;25.52;;
22248;SDS011;67538;52.180;5.646;2023-02-20T13:31:19;38.40;;;25.77;;
22248;SDS011;67538;52.180;5.646;2023-02-20T13:33:48;38.87;;;26.07;;
22248;SDS011;67538;52.180;5.646;2023-02-20T13:41:56;40.03;;;26.00;;
22248;SDS011;67538;52.180;5.646;2023-02-20T13:44:38;37.90;;;25.55;;
22248;SDS011;67538;52.180;5.646;2023-02-20T13:47:27;38.17;;;25.58;;
22248;SDS011;67538;52.180;5.646;2023-02-20T13:49:56;37.45;;;25.92;;
22248;SDS011;67538;52.180;5.646;2023-02-20T13:52:29;36.63;;;26.90;;
22248;SDS011;67538;52.180;5.646;2023-02-20T13:55:09;41.10;;;27.00;;
22248;SDS011;67538;52.180;5.646;2023-02-20T13:57:42;41.70;;;26.90;;
22248;SDS011;67538;52.180;5.646;2023-02-20T14:00:20;40.35;;;27.30;;
22248;SDS011;67538;52.180;5.646;2023-02-20T14:02:52;38.50;;;26.67;;
22248;SDS011;67538;52.180;5.646;2023-02-20T14:05:20;37.17;;;26.63;;
22248;SDS011;67538;52.180;5.646;2023-02-20T14:07:49;37.83;;;25.92;;
22248;SDS011;67538;52.180;5.646;2023-02-20T14:10:17;44.25;;;27.60;;
22248;SDS011;67538;52.180;5.646;2023-02-20T14:12:55;42.53;;;28.00;;
22248;SDS011;67538;52.180;5.646;2023-02-20T14:15:27;42.20;;;27.83;;
22248;SDS011;67538;52.180;5.646;2023-02-20T14:17:56;41.23;;;28.07;;
22248;SDS011;67538;52.180;5.646;2023-02-20T14:20:25;42.25;;;27.40;;
22248;SDS011;67538;52.180;5.646;2023-02-20T14:23:05;43.80;;;29.42;;
22248;SDS011;67538;52.180;5.646;2023-02-20T14:25:51;46.38;;;30.65;;
22248;SDS011;67538;52.180;5.646;2023-02-20T14:28:22;44.97;;;30.33;;
22248;SDS011;67538;52.180;5.646;2023-02-20T14:31:05;49.38;;;32.15;;
22248;SDS011;67538;52.180;5.646;2023-02-20T14:33:45;46.80;;;31.85;;
22248;SDS011;67538;52.180;5.646;2023-02-20T14:39:32;44.08;;;30.90;;
22248;SDS011;67538;52.180;5.646;2023-02-20T14:42:10;48.50;;;32.60;;
22248;SDS011;67538;52.180;5.646;2023-02-20T14:44:40;47.45;;;32.80;;
22248;SDS011;67538;52.180;5.646;2023-02-20T14:47:10;53.45;;;34.25;;
22248;SDS011;67538;52.180;5.646;2023-02-20T14:49:40;51.50;;;33.63;;
22248;SDS011;67538;52.180;5.646;2023-02-20T14:52:14;48.05;;;32.03;;
22248;SDS011;67538;52.180;5.646;2023-02-20T14:54:55;45.75;;;31.30;;
22248;SDS011;67538;52.180;5.646;2023-02-20T14:57:23;44.72;;;31.08;;
22248;SDS011;67538;52.180;5.646;2023-02-20T14:59:51;41.97;;;30.08;;
22248;SDS011;67538;52.180;5.646;2023-02-20T15:02:40;44.03;;;31.55;;
22248;SDS011;67538;52.180;5.646;2023-02-20T15:05:12;45.45;;;32.47;;
22248;SDS011;67538;52.180;5.646;2023-02-20T15:07:42;44.85;;;32.22;;
22248;SDS011;67538;52.180;5.646;2023-02-20T15:10:26;49.38;;;33.40;;
22248;SDS011;67538;52.180;5.646;2023-02-20T15:12:59;48.28;;;34.38;;
22248;SDS011;67538;52.180;5.646;2023-02-20T15:15:35;48.25;;;34.97;;
22248;SDS011;67538;52.180;5.646;2023-02-20T15:18:06;51.42;;;35.00;;
22248;SDS011;67538;52.180;5.646;2023-02-20T15:20:35;49.22;;;34.97;;